Mount Burr Forest Reserve, South Australia

5:32 PM ACST on August 05, 2015 (GMT +0930)
Naracoorte | | Change Station
CLOSE
Current Station
Personal Weather Station
Location: Naracoorte, SOUTH AUSTRALIA
Elevation: 165 ft
Nearby Weather Stations

Elev 165 ft 36.96 °S, 140.74 °E | Updated 9 minutes ago

Mostly Cloudy
Mostly Cloudy
48.5 °F
Feels Like 45 °F
N
7.0
Wind Variable Wind from West
Gusts 10.0 mph

Today
High -- | Low -- °F
--% Chance of Precip.
Yesterday
High -- | Low -- °F
Precip. -- in
7:02 AM 5:24 PM
Waning Gibbous, 69% visible
Pressure 30.06 in
Visibility 6.2 miles
Clouds Scattered Clouds 2500 ft
Scattered Clouds 3300 ft
Mostly Cloudy 4100 ft
Windchill 45 °F
Dew Point 45 °F
Humidity 87%
Rainfall 0.02 in
Snow Depth Not available.
UV 0.0 out of 12
Pollen Not available.
Air Quality Not available.
Flu Activity Not available.
SPECI YMTG 050700Z AUTO 23015KT 9999 // SCT025 SCT033 BKN041 09/05 Q1018

More Conditions Fewer Conditions

Pressure 30.06 in
Visibility 6.2 miles
Clouds Scattered Clouds 2500 ft
Scattered Clouds 3300 ft
Mostly Cloudy 4100 ft
Windchill 45 °F
Dew Point 45 °F
Humidity 87%
Rainfall 0.02 in
Snow Depth Not available.
UV 0.0 out of 12
Pollen Not available.
Air Quality Not available.
Flu Activity Not available.
SPECI YMTG 050700Z AUTO 23015KT 9999 // SCT025 SCT033 BKN041 09/05 Q1018

More Conditions Fewer Conditions

10-Day Weather Forecast

×

Almanac

Astronomy

Aug. 05, 2015 Rise Set
Actual Time
Civil Twilight
Nautical Twilight
Astronomical Twilight
Moon
Length of Visible Light
Length of Day
Tomorrow will be .
, % of the Moon is Illuminated

Today's Extremes

Country Highs Country Lows

Community

WunderPhotos

Upload Photos

1,844,105 photos uploaded!

WunderBlogs® & News

Nearby

Air Quality

  Air Quality AQ Index Pollutant
Not available.

Snow Depth

Station Depth Elevation

Earthquake Activity

City Distance Mag. Time & Date
Minimum magnitude displayed is 2.5.

Coastal Water Temperatures

Place Temperature

Stations

Nearby Weather Stations

Station Location Temp. Windchill Dew Point Humidity Wind Precip. Elev Updated Type